Time;durP1;ratioP1;P1;durP2;ratioP2;P2;SDS_P1;SDS_P2;PMS_P1;PMS_P2;Temp;Humidity;BMP_temperature;BMP_pressure;BME280_temperature;BME280_humidity;BME280_pressure;Samples;Min_cycle;Max_cycle;Signal;HPM_P1;HPM_P2
2021/01/09 00:03:53;;;;;;;12.68;8.30;;;17.20;54.60;;;;;;10568119;28;20043;-61
2021/01/09 00:08:55;;;;;;;13.50;7.93;;;17.10;54.60;;;;;;10570865;28;20050;-61
2021/01/09 00:13:56;;;;;;;13.93;8.00;;;17.10;54.50;;;;;;10572090;28;20126;-60
2021/01/09 00:18:57;;;;;;;17.02;8.43;;;17.10;54.50;;;;;;10571128;28;20063;-60
2021/01/09 00:24:00;;;;;;;13.52;7.80;;;17.10;54.50;;;;;;10570162;28;20150;-60
2021/01/09 00:29:02;;;;;;;12.45;7.88;;;17.00;54.50;;;;;;10570645;28;20047;-60
2021/01/09 00:34:03;;;;;;;15.82;8.18;;;17.00;54.50;;;;;;10570089;28;20134;-60
2021/01/09 00:39:06;;;;;;;14.68;7.88;;;17.00;54.50;;;;;;10570430;28;20040;-60
2021/01/09 00:44:07;;;;;;;12.00;7.68;;;16.90;54.50;;;;;;10571115;28;20124;-60
2021/01/09 00:49:09;;;;;;;12.45;7.38;;;16.90;54.50;;;;;;10578159;28;20463;-60
2021/01/09 00:54:11;;;;;;;15.02;7.50;;;16.90;54.40;;;;;;10578288;27;20433;-60
2021/01/09 00:59:12;;;;;;;12.63;7.07;;;16.90;54.40;;;;;;10578532;27;20047;-60
2021/01/09 01:04:13;;;;;;;12.68;7.20;;;16.90;54.50;;;;;;10576831;28;20497;-60
2021/01/09 01:09:16;;;;;;;12.90;7.60;;;16.80;54.40;;;;;;10578968;28;20162;-60
2021/01/09 01:14:17;;;;;;;12.30;6.63;;;16.80;54.40;;;;;;10579500;27;20044;-60
2021/01/09 01:19:18;;;;;;;9.65;6.53;;;16.80;54.30;;;;;;10579801;27;20050;-60
2021/01/09 01:24:20;;;;;;;11.82;7.30;;;16.90;54.30;;;;;;10572748;27;20057;-60
2021/01/09 01:29:21;;;;;;;9.70;6.45;;;16.80;54.20;;;;;;10575223;28;20143;-60
2021/01/09 01:34:23;;;;;;;18.52;6.22;;;16.80;54.20;;;;;;10574794;27;20082;-60
2021/01/09 01:39:25;;;;;;;14.13;6.70;;;16.80;54.20;;;;;;10572319;28;20539;-59
2021/01/09 01:44:30;;;;;;;12.10;6.40;;;16.80;54.20;;;;;;10570763;28;20052;-60
2021/01/09 01:49:32;;;;;;;12.10;6.50;;;16.80;54.20;;;;;;10571535;28;20084;-61
2021/01/09 01:54:34;;;;;;;12.65;6.38;;;16.80;54.20;;;;;;10571416;27;20707;-60
2021/01/09 01:59:35;;;;;;;9.30;5.40;;;16.70;54.20;;;;;;10752751;22;20056;-60
2021/01/09 02:04:37;;;;;;;9.40;5.13;;;16.70;54.10;;;;;;10483373;28;20044;-60
2021/01/09 02:09:42;;;;;;;10.43;5.60;;;16.70;54.20;;;;;;10482872;28;20131;-60
2021/01/09 02:14:45;;;;;;;9.55;5.35;;;16.70;54.70;;;;;;10488611;28;20058;-60
2021/01/09 02:19:46;;;;;;;8.40;5.38;;;16.70;54.20;;;;;;10488396;28;20589;-60
2021/01/09 02:24:48;;;;;;;9.02;5.20;;;16.70;54.10;;;;;;10488899;28;20052;-61
2021/01/09 02:29:57;;;;;;;8.57;4.90;;;16.70;54.10;;;;;;10489466;28;20056;-60
2021/01/09 02:35:00;;;;;;;8.15;5.00;;;16.70;54.10;;;;;;10489261;28;20565;-60
2021/01/09 02:40:04;;;;;;;;;;;16.60;54.00;;;;;;10488241;28;20048;-60
2021/01/09 02:45:06;;;;;;;7.70;4.88;;;16.60;54.10;;;;;;10489577;28;19921;-60
2021/01/09 02:50:10;;;;;;;5.38;4.10;;;16.70;54.10;;;;;;10488254;28;20058;-62
2021/01/09 02:55:12;;;;;;;6.43;3.60;;;16.60;54.00;;;;;;10487324;28;20119;-60
2021/01/09 03:00:15;;;;;;;7.78;4.32;;;16.60;54.00;;;;;;10486476;28;20040;-60
2021/01/09 03:05:16;;;;;;;6.40;4.15;;;16.60;54.00;;;;;;10488591;28;20044;-60
2021/01/09 03:10:18;;;;;;;6.80;4.38;;;16.60;54.00;;;;;;10487501;28;20548;-60
2021/01/09 03:15:20;;;;;;;6.40;3.78;;;16.60;54.10;;;;;;10488085;28;20129;-60
2021/01/09 03:20:21;;;;;;;6.63;3.40;;;16.50;54.00;;;;;;10484692;28;20063;-60
2021/01/09 03:25:23;;;;;;;5.53;3.42;;;16.60;54.10;;;;;;10487825;28;20053;-60
2021/01/09 03:30:24;;;;;;;6.30;3.50;;;16.50;54.00;;;;;;10485533;28;20403;-60
2021/01/09 03:35:26;;;;;;;5.97;3.50;;;16.50;54.00;;;;;;10484592;28;20570;-61
2021/01/09 03:40:28;;;;;;;5.63;3.50;;;16.50;54.00;;;;;;10483336;28;20048;-60
2021/01/09 03:45:29;;;;;;;6.78;3.50;;;16.50;54.50;;;;;;10483522;28;20048;-60
2021/01/09 03:50:30;;;;;;;6.60;3.22;;;16.50;54.00;;;;;;10485474;28;20479;-60
2021/01/09 03:55:33;;;;;;;5.25;3.00;;;16.50;53.90;;;;;;10483863;28;20051;-60
2021/01/09 04:00:34;;;;;;;5.40;3.33;;;16.50;53.90;;;;;;10485153;28;20082;-60
2021/01/09 04:05:35;;;;;;;4.55;2.72;;;16.50;53.90;;;;;;10486840;28;20041;-61
2021/01/09 04:10:37;;;;;;;3.63;2.53;;;16.50;53.90;;;;;;10486176;28;20449;-60
2021/01/09 04:15:39;;;;;;;3.72;2.75;;;16.50;54.00;;;;;;10486099;28;20373;-60
2021/01/09 04:20:40;;;;;;;4.63;2.65;;;;;;;;;;10489970;28;20059;-60
2021/01/09 04:25:42;;;;;;;3.30;2.53;;;16.40;53.40;;;;;;10491730;28;20048;-60
2021/01/09 04:30:44;;;;;;;5.22;2.35;;;16.40;53.90;;;;;;10491434;28;20437;-60
2021/01/09 04:35:45;;;;;;;4.85;2.60;;;16.40;53.90;;;;;;10492003;28;20215;-60
2021/01/09 04:40:47;;;;;;;3.28;2.08;;;16.40;53.90;;;;;;10489901;28;20144;-61
2021/01/09 04:45:49;;;;;;;3.22;2.00;;;16.40;53.90;;;;;;10492682;28;20088;-60
2021/01/09 04:50:51;;;;;;;2.35;1.83;;;16.40;53.90;;;;;;10494347;28;20148;-60
2021/01/09 04:55:53;;;;;;;2.92;2.13;;;16.30;53.80;;;;;;10495003;28;20496;-60
2021/01/09 05:00:56;;;;;;;4.15;2.13;;;16.30;53.80;;;;;;10494043;28;20052;-60
2021/01/09 05:05:57;;;;;;;3.58;1.88;;;16.30;53.70;;;;;;10492731;28;20137;-60
2021/01/09 05:11:00;;;;;;;2.75;1.73;;;16.40;54.00;;;;;;10494010;28;20122;-60
2021/01/09 05:16:01;;;;;;;1.90;1.42;;;16.30;53.70;;;;;;10493261;28;20047;-60
2021/01/09 05:21:05;;;;;;;3.72;1.90;;;16.30;53.80;;;;;;10493952;28;20076;-60
2021/01/09 05:26:08;;;;;;;2.80;1.85;;;16.30;53.80;;;;;;10492470;28;20097;-60
2021/01/09 05:31:09;;;;;;;2.92;1.70;;;16.30;53.80;;;;;;10492296;28;20540;-60
2021/01/09 05:36:11;;;;;;;2.33;1.95;;;16.20;53.70;;;;;;10493347;28;20060;-60
2021/01/09 05:41:15;;;;;;;2.90;1.63;;;16.20;53.70;;;;;;10492446;28;20109;-60
2021/01/09 05:46:17;;;;;;;2.55;1.40;;;16.20;53.70;;;;;;10490757;28;20045;-61
2021/01/09 05:51:18;;;;;;;1.95;1.70;;;16.20;53.70;;;;;;10492012;28;20151;-60
2021/01/09 05:56:21;;;;;;;3.83;1.50;;;16.20;53.60;;;;;;10492094;28;20045;-60
2021/01/09 06:01:26;;;;;;;2.25;1.42;;;16.20;53.60;;;;;;10492950;28;20060;-60
2021/01/09 06:06:35;;;;;;;2.03;1.42;;;16.20;53.60;;;;;;10492424;28;20070;-60
2021/01/09 06:11:38;;;;;;;2.10;1.30;;;16.20;53.50;;;;;;10491704;28;20128;-61
2021/01/09 06:16:41;;;;;;;2.03;1.48;;;16.20;53.60;;;;;;10491598;28;20085;-60
2021/01/09 06:21:42;;;;;;;1.30;1.00;;;16.20;53.50;;;;;;10491392;28;20848;-60
2021/01/09 06:26:45;;;;;;;1.52;1.20;;;16.20;53.40;;;;;;10487757;28;20066;-60
2021/01/09 06:31:50;;;;;;;;;;;16.30;53.30;;;;;;10490167;28;20177;-60
2021/01/09 06:36:55;;;;;;;1.63;1.40;;;16.30;53.20;;;;;;10488840;28;19943;-60
2021/01/09 06:42:00;;;;;;;2.05;1.05;;;16.30;53.20;;;;;;10487149;28;20108;-59
2021/01/09 06:47:01;;;;;;;2.00;1.08;;;16.40;53.20;;;;;;10486781;28;20079;-61
2021/01/09 06:52:03;;;;;;;1.73;0.95;;;16.40;53.10;;;;;;10488147;28;20056;-60
2021/01/09 06:57:12;;;;;;;1.52;0.75;;;16.40;53.00;;;;;;10487657;28;20056;-60
2021/01/09 07:02:19;;;;;;;1.15;1.00;;;16.40;53.00;;;;;;10488197;28;20079;-60
2021/01/09 07:07:28;;;;;;;1.88;1.38;;;16.50;53.00;;;;;;10485493;28;20106;-61
2021/01/09 07:12:31;;;;;;;1.45;0.90;;;16.50;52.90;;;;;;10487733;28;20131;-61
2021/01/09 07:17:37;;;;;;;1.55;1.17;;;16.50;52.90;;;;;;10486145;28;20510;-61
2021/01/09 07:22:39;;;;;;;1.13;0.88;;;16.50;52.90;;;;;;10485957;28;20058;-61
2021/01/09 07:27:44;;;;;;;1.30;0.77;;;16.50;52.90;;;;;;10484698;28;20094;-61
2021/01/09 07:32:48;;;;;;;1.83;0.80;;;16.60;52.90;;;;;;10484247;28;20098;-60
2021/01/09 07:37:51;;;;;;;1.83;1.08;;;16.60;52.90;;;;;;10486290;28;20072;-61
2021/01/09 07:42:54;;;;;;;1.10;1.00;;;16.60;52.90;;;;;;10740882;22;20495;-60
2021/01/09 07:47:56;;;;;;;1.58;1.00;;;16.60;52.90;;;;;;10557351;28;20095;-61
2021/01/09 07:53:05;;;;;;;2.70;0.88;;;16.60;52.80;;;;;;10544137;28;20134;-61
2021/01/09 07:58:07;;;;;;;2.70;1.15;;;16.60;52.80;;;;;;10545190;28;20044;-61
2021/01/09 08:03:10;;;;;;;4.55;1.10;;;16.70;52.80;;;;;;10540202;28;20139;-61
2021/01/09 08:08:12;;;;;;;2.50;1.17;;;16.60;52.70;;;;;;10545020;28;20459;-62
2021/01/09 08:13:16;;;;;;;4.57;0.83;;;16.70;52.80;;;;;;10545143;28;21250;-60
2021/01/09 08:18:18;;;;;;;5.82;2.72;;;16.70;52.80;;;;;;10542372;28;20472;-61
2021/01/09 08:23:19;;;;;;;4.35;1.10;;;16.80;52.80;;;;;;10544960;28;20109;-60
2021/01/09 08:28:22;;;;;;;3.25;1.10;;;16.80;52.80;;;;;;10543394;28;20468;-60
2021/01/09 08:33:23;;;;;;;5.55;1.25;;;16.80;52.80;;;;;;10541165;28;20381;-61
2021/01/09 08:38:28;;;;;;;2.58;1.00;;;16.80;52.80;;;;;;10540020;28;20040;-60
2021/01/09 08:43:30;;;;;;;9.32;1.65;;;16.90;52.70;;;;;;10544100;28;20109;-60
2021/01/09 08:48:36;;;;;;;6.18;1.13;;;17.00;52.60;;;;;;10548028;28;20157;-60
2021/01/09 08:53:47;;;;;;;1.70;1.10;;;17.00;52.50;;;;;;10541054;28;20106;-60
2021/01/09 08:58:49;;;;;;;17.88;1.25;;;17.00;52.60;;;;;;10553947;28;20401;-61
2021/01/09 09:03:52;;;;;;;;;;;17.00;52.60;;;;;;10542368;28;20062;-60
2021/01/09 09:08:54;;;;;;;5.30;1.13;;;17.00;52.70;;;;;;10549134;28;19965;-60
2021/01/09 09:14:07;;;;;;;5.30;1.50;;;17.00;52.60;;;;;;10554754;28;20044;-61
2021/01/09 09:19:10;;;;;;;6.68;1.30;;;17.10;52.60;;;;;;10560022;28;20051;-60
2021/01/09 09:24:11;;;;;;;7.28;1.00;;;17.10;52.50;;;;;;10563333;28;20143;-61
2021/01/09 09:29:16;;;;;;;4.82;0.98;;;17.10;52.40;;;;;;10559467;28;20163;-61
2021/01/09 09:34:18;;;;;;;9.00;1.58;;;17.20;52.50;;;;;;10554346;28;20055;-60
2021/01/09 09:39:20;;;;;;;7.53;1.08;;;17.20;52.40;;;;;;10552848;28;20044;-59
2021/01/09 09:44:33;;;;;;;6.75;1.02;;;17.20;52.40;;;;;;10555033;28;20151;-58
2021/01/09 09:49:37;;;;;;;10.98;1.98;;;17.20;52.40;;;;;;10556780;28;20128;-59
2021/01/09 09:54:38;;;;;;;5.72;1.90;;;17.30;52.50;;;;;;10548044;28;20495;-60
2021/01/09 09:59:40;;;;;;;6.53;1.73;;;17.30;52.60;;;;;;10552271;28;20514;-60
2021/01/09 10:04:45;;;;;;;9.90;1.35;;;17.40;52.60;;;;;;10559802;28;20048;-59
2021/01/09 10:09:46;;;;;;;3.92;1.35;;;17.40;52.70;;;;;;10550494;28;20196;-59
2021/01/09 10:14:48;;;;;;;4.00;1.25;;;17.40;52.60;;;;;;10555211;28;20051;-59
2021/01/09 10:19:50;;;;;;;9.32;1.30;;;17.50;52.60;;;;;;10545539;28;21361;-59
2021/01/09 10:24:51;;;;;;;4.45;1.10;;;17.50;52.50;;;;;;10545232;28;20056;-60
2021/01/09 10:29:53;;;;;;;3.03;1.42;;;17.60;52.60;;;;;;10538608;28;20052;-59
2021/01/09 10:34:55;;;;;;;4.15;1.30;;;17.60;52.50;;;;;;10558847;28;20055;-61
2021/01/09 10:39:56;;;;;;;11.23;2.08;;;17.70;52.60;;;;;;10549082;28;20044;-61
2021/01/09 10:44:58;;;;;;;6.80;2.70;;;17.80;52.60;;;;;;10548813;28;20063;-61
2021/01/09 10:49:59;;;;;;;7.07;2.33;;;17.90;52.40;;;;;;10548640;28;20082;-58
2021/01/09 10:55:01;;;;;;;6.75;3.40;;;18.10;51.90;;;;;;10547536;28;20046;-60
2021/01/09 11:00:07;;;;;;;22.85;8.60;;;18.20;52.50;;;;;;10550244;28;20048;-60
2021/01/09 11:05:09;;;;;;;12.45;4.85;;;18.00;52.40;;;;;;10538954;28;20058;-60
2021/01/09 11:10:11;;;;;;;15.23;3.40;;;17.80;52.60;;;;;;10546436;28;20464;-59
2021/01/09 11:15:14;;;;;;;7.95;3.22;;;17.70;52.70;;;;;;10553544;28;20051;-60
2021/01/09 11:20:15;;;;;;;8.55;2.83;;;17.70;52.80;;;;;;10544143;28;20466;-59
2021/01/09 11:25:17;;;;;;;5.38;1.80;;;17.70;52.80;;;;;;10544991;28;20087;-59
2021/01/09 11:30:20;;;;;;;6.32;1.70;;;17.70;52.80;;;;;;10541908;28;20587;-59
2021/01/09 11:35:21;;;;;;;2.70;1.23;;;17.70;52.70;;;;;;10553277;28;20043;-55
2021/01/09 11:40:23;;;;;;;5.85;2.35;;;17.70;52.60;;;;;;10550636;28;20044;-57
2021/01/09 11:45:25;;;;;;;5.85;2.33;;;17.70;52.40;;;;;;10542687;28;20575;-58
2021/01/09 11:50:26;;;;;;;3.72;1.42;;;17.70;52.40;;;;;;10548167;28;20530;-59
2021/01/09 11:55:28;;;;;;;3.85;1.42;;;17.70;52.40;;;;;;10526304;28;20039;-59
2021/01/09 12:00:30;;;;;;;2.60;0.98;;;17.70;52.40;;;;;;10549568;28;20059;-60
2021/01/09 12:05:32;;;;;;;5.53;1.30;;;17.70;52.40;;;;;;10528061;28;20040;-60
2021/01/09 12:10:34;;;;;;;3.90;1.02;;;17.80;52.40;;;;;;10554698;28;20419;-60
2021/01/09 12:15:36;;;;;;;10.02;2.78;;;17.70;52.30;;;;;;10545093;28;20063;-58
2021/01/09 12:20:39;;;;;;;1.83;0.52;;;17.70;52.30;;;;;;10545787;28;20464;-57
2021/01/09 12:25:40;;;;;;;3.30;0.75;;;17.70;52.20;;;;;;10547603;28;20051;-60
2021/01/09 12:30:42;;;;;;;3.00;0.70;;;17.80;52.30;;;;;;10540467;28;20134;-58
2021/01/09 12:35:44;;;;;;;4.63;0.82;;;17.70;52.20;;;;;;10534473;28;20527;-59
2021/01/09 12:40:45;;;;;;;2.30;0.98;;;17.70;52.30;;;;;;10543663;28;20043;-60
2021/01/09 12:45:47;;;;;;;1.85;0.90;;;17.80;52.40;;;;;;10544114;28;20048;-60
2021/01/09 12:50:48;;;;;;;5.25;1.55;;;17.80;52.30;;;;;;10545554;28;20130;-60
2021/01/09 12:55:50;;;;;;;2.97;0.90;;;17.80;52.40;;;;;;10549100;28;20348;-60
2021/01/09 13:00:52;;;;;;;3.83;1.02;;;17.80;52.40;;;;;;10552203;28;20044;-58
2021/01/09 13:05:53;;;;;;;4.10;0.80;;;17.80;52.40;;;;;;10547221;28;21424;-60
2021/01/09 13:10:54;;;;;;;2.35;0.40;;;17.80;52.50;;;;;;10547025;28;20406;-61
2021/01/09 13:15:57;;;;;;;1.55;0.82;;;17.70;52.40;;;;;;10550708;28;20054;-60
2021/01/09 13:20:58;;;;;;;1.30;0.50;;;17.70;52.40;;;;;;10552993;28;20058;-59
2021/01/09 13:26:03;;;;;;;1.77;0.80;;;17.70;52.50;;;;;;10563874;28;20869;-58
2021/01/09 13:31:05;;;;;;;3.58;0.60;;;17.80;53.10;;;;;;10549789;28;20394;-59
2021/01/09 13:36:09;;;;;;;3.20;0.73;;;17.80;52.50;;;;;;10555685;28;20057;-60
2021/01/09 13:41:10;;;;;;;1.60;0.70;;;17.80;52.60;;;;;;10554136;28;20625;-60
2021/01/09 13:46:18;;;;;;;3.35;0.93;;;17.80;52.60;;;;;;10551945;28;20108;-58
2021/01/09 13:51:20;;;;;;;3.03;1.05;;;17.80;52.60;;;;;;10551137;28;20051;-59
2021/01/09 13:56:31;;;;;;;2.17;1.00;;;17.80;52.60;;;;;;10547113;28;20047;-62
2021/01/09 14:01:35;;;;;;;4.80;0.85;;;17.80;52.60;;;;;;10558877;28;20471;-61
2021/01/09 14:06:36;;;;;;;4.25;1.13;;;17.80;52.60;;;;;;10544352;28;20486;-56
2021/01/09 14:11:37;;;;;;;5.00;1.20;;;17.80;52.60;;;;;;10562234;28;20055;-58
2021/01/09 14:16:40;;;;;;;2.95;1.20;;;17.80;52.60;;;;;;10552599;28;20036;-61
2021/01/09 14:21:43;;;;;;;4.50;1.77;;;17.80;52.60;;;;;;10553208;28;20131;-58
2021/01/09 14:26:45;;;;;;;4.82;1.67;;;17.90;53.20;;;;;;10549340;28;20047;-60
2021/01/09 14:31:47;;;;;;;4.07;1.60;;;17.90;52.70;;;;;;10548347;28;20044;-59
2021/01/09 14:36:48;;;;;;;4.57;1.88;;;17.80;52.70;;;;;;10547240;28;20097;-59
2021/01/09 14:41:50;;;;;;;4.15;1.75;;;17.80;52.70;;;;;;10547697;28;20138;-58
2021/01/09 14:46:56;;;;;;;6.53;2.03;;;17.90;52.80;;;;;;10541444;28;20104;-61
2021/01/09 14:52:01;;;;;;;5.35;1.90;;;17.90;52.90;;;;;;10552747;28;20086;-58
2021/01/09 14:57:03;;;;;;;6.93;1.85;;;17.90;53.00;;;;;;10546285;28;20048;-57
2021/01/09 15:02:08;;;;;;;4.53;1.52;;;17.90;53.00;;;;;;10547241;28;20044;-62
2021/01/09 15:07:09;;;;;;;3.58;1.63;;;17.90;53.00;;;;;;10542568;28;20144;-63
2021/01/09 15:12:10;;;;;;;2.80;1.30;;;17.90;53.10;;;;;;10553408;28;20051;-65
2021/01/09 15:17:13;;;;;;;5.53;2.30;;;17.90;53.20;;;;;;10547500;28;20104;-64
2021/01/09 15:22:14;;;;;;;3.83;1.05;;;17.90;53.20;;;;;;10548749;28;20048;-62
2021/01/09 15:27:15;;;;;;;3.63;1.83;;;17.90;53.20;;;;;;10546446;28;20055;-63
2021/01/09 15:32:17;;;;;;;3.92;1.30;;;18.00;53.80;;;;;;10536699;28;20131;-61
2021/01/09 15:37:19;;;;;;;3.70;1.23;;;17.90;53.10;;;;;;10547333;28;20043;-58
2021/01/09 15:42:20;;;;;;;8.65;4.43;;;18.00;53.10;;;;;;10547696;28;20092;-59
2021/01/09 15:47:22;;;;;;;8.75;3.22;;;18.00;53.10;;;;;;10542475;28;20184;-60
2021/01/09 15:52:23;;;;;;;9.57;3.30;;;18.00;53.10;;;;;;10548462;28;20513;-53
2021/01/09 15:57:24;;;;;;;7.75;2.95;;;18.00;53.10;;;;;;10546331;28;20054;-48
2021/01/09 16:02:27;;;;;;;5.70;2.63;;;18.00;53.10;;;;;;10552934;28;20107;-52
2021/01/09 16:07:28;;;;;;;11.98;3.20;;;18.00;53.10;;;;;;10540835;28;20244;-52
2021/01/09 16:12:29;;;;;;;5.70;2.33;;;18.00;53.20;;;;;;10550388;28;20036;-59
2021/01/09 16:17:32;;;;;;;5.22;2.38;;;18.10;53.20;;;;;;10546125;28;20043;-56
2021/01/09 16:22:34;;;;;;;4.05;2.00;;;18.00;53.20;;;;;;10550532;28;20040;-58
2021/01/09 16:27:35;;;;;;;7.57;2.38;;;18.00;53.20;;;;;;10547522;28;20052;-58
2021/01/09 16:32:37;;;;;;;5.13;2.00;;;18.00;53.20;;;;;;10546941;28;20131;-59
2021/01/09 16:37:39;;;;;;;4.32;1.58;;;18.10;53.30;;;;;;10547521;28;20142;-59
2021/01/09 16:42:40;;;;;;;4.50;1.55;;;18.10;53.30;;;;;;10535045;28;20135;-55
2021/01/09 16:47:46;;;;;;;7.90;3.10;;;18.10;53.90;;;;;;10546277;28;20055;-54
2021/01/09 16:52:48;;;;;;;15.95;5.47;;;18.10;53.30;;;;;;10550010;28;20131;-56
2021/01/09 16:57:53;;;;;;;12.70;5.80;;;18.10;53.30;;;;;;10546909;28;20047;-57
2021/01/09 17:02:56;;;;;;;11.98;5.85;;;18.10;53.20;;;;;;10537909;28;20068;-57
2021/01/09 17:07:59;;;;;;;12.18;6.07;;;18.10;53.20;;;;;;10550050;28;20388;-58
2021/01/09 17:13:00;;;;;;;12.75;6.13;;;18.10;53.20;;;;;;10547650;28;20044;-57
2021/01/09 17:18:02;;;;;;;8.35;3.70;;;18.10;53.10;;;;;;10548640;28;20047;-56
2021/01/09 17:23:03;;;;;;;8.82;4.20;;;18.10;53.10;;;;;;10541627;28;20044;-56
2021/01/09 17:28:06;;;;;;;6.15;3.28;;;18.00;53.00;;;;;;10552152;28;20054;-57
2021/01/09 17:33:08;;;;;;;;;;;18.00;53.00;;;;;;10550442;28;20725;-55
2021/01/09 17:38:09;;;;;;;5.30;2.60;;;18.10;53.00;;;;;;10548521;28;19938;-55
2021/01/09 17:43:11;;;;;;;9.82;2.70;;;18.10;53.00;;;;;;10545356;28;20046;-56
2021/01/09 17:48:13;;;;;;;7.85;2.45;;;18.10;53.00;;;;;;10542412;28;20083;-56
2021/01/09 17:53:14;;;;;;;5.85;2.20;;;18.10;53.00;;;;;;10546721;28;20043;-60
2021/01/09 17:58:15;;;;;;;9.30;2.72;;;18.10;53.00;;;;;;10547438;28;20046;-59
2021/01/09 18:03:17;;;;;;;5.70;1.83;;;18.10;53.00;;;;;;10554478;28;20096;-60
2021/01/09 18:08:19;;;;;;;16.33;5.28;;;18.10;53.00;;;;;;10551095;28;20142;-61
2021/01/09 18:13:20;;;;;;;14.57;6.18;;;18.10;53.00;;;;;;10544120;28;20039;-59
2021/01/09 18:18:23;;;;;;;22.27;9.57;;;18.10;53.00;;;;;;10548329;28;20071;-61
2021/01/09 18:23:24;;;;;;;26.90;11.32;;;18.10;53.00;;;;;;10548893;28;20075;-60
2021/01/09 18:28:26;;;;;;;25.52;11.75;;;18.20;53.10;;;;;;10542340;28;20048;-63
2021/01/09 18:33:28;;;;;;;28.40;12.32;;;18.10;53.00;;;;;;10548805;28;20410;-63
2021/01/09 18:38:29;;;;;;;24.70;11.95;;;18.10;53.00;;;;;;10549761;28;20055;-61
2021/01/09 18:43:30;;;;;;;30.05;13.07;;;18.10;53.00;;;;;;10549293;28;20047;-64
2021/01/09 18:48:32;;;;;;;30.10;13.43;;;18.10;53.00;;;;;;10543117;28;20062;-61
2021/01/09 18:53:33;;;;;;;34.40;15.77;;;18.10;52.90;;;;;;10549879;28;20117;-59
2021/01/09 18:58:35;;;;;;;27.73;13.88;;;18.10;53.50;;;;;;10547124;28;20052;-55
2021/01/09 19:03:37;;;;;;;28.88;13.80;;;18.10;52.90;;;;;;10549051;28;20078;-58
2021/01/09 19:08:38;;;;;;;28.38;14.70;;;18.10;52.90;;;;;;10541899;28;20060;-59
2021/01/09 19:13:40;;;;;;;25.63;14.05;;;18.10;52.90;;;;;;10552729;28;20044;-56
2021/01/09 19:18:42;;;;;;;22.45;11.75;;;18.10;52.90;;;;;;10548221;28;20046;-60
2021/01/09 19:23:43;;;;;;;19.95;10.07;;;18.10;52.90;;;;;;10553891;28;20067;-55
2021/01/09 19:28:45;;;;;;;15.30;7.70;;;18.10;53.00;;;;;;10527399;28;20048;-58
2021/01/09 19:33:48;;;;;;;14.77;7.38;;;18.20;53.10;;;;;;10548289;28;20126;-57
2021/01/09 19:38:50;;;;;;;12.18;6.07;;;18.10;53.10;;;;;;10542603;28;20131;-59
2021/01/09 19:43:52;;;;;;;13.52;6.25;;;18.20;53.20;;;;;;10542104;28;20132;-59
2021/01/09 19:48:55;;;;;;;14.07;5.75;;;18.20;53.20;;;;;;10540524;28;20122;-58
2021/01/09 19:53:56;;;;;;;12.43;5.05;;;18.20;53.30;;;;;;10544897;28;20552;-56
2021/01/09 19:58:57;;;;;;;12.90;5.68;;;18.20;53.30;;;;;;10552946;28;20161;-58
2021/01/09 20:03:59;;;;;;;10.70;4.78;;;18.20;53.30;;;;;;10549327;28;20058;-58
2021/01/09 20:09:01;;;;;;;13.27;4.75;;;18.30;53.50;;;;;;10552174;28;20475;-59
2021/01/09 20:14:02;;;;;;;14.95;4.30;;;18.30;53.50;;;;;;10547121;28;20104;-58
2021/01/09 20:19:05;;;;;;;9.50;4.57;;;18.30;53.50;;;;;;10546200;28;20126;-58
2021/01/09 20:24:08;;;;;;;10.43;4.63;;;18.30;53.60;;;;;;10548645;28;20133;-58
2021/01/09 20:29:10;;;;;;;12.57;4.13;;;18.30;53.50;;;;;;10546346;28;20082;-56
2021/01/09 20:34:13;;;;;;;10.27;4.65;;;18.30;53.50;;;;;;10544563;28;20491;-58
2021/01/09 20:39:14;;;;;;;9.73;4.20;;;18.30;53.50;;;;;;10550752;28;20056;-59
2021/01/09 20:44:16;;;;;;;13.13;4.78;;;18.30;53.50;;;;;;10543037;28;20040;-56
2021/01/09 20:49:18;;;;;;;8.02;3.88;;;18.30;53.50;;;;;;10547178;28;20570;-58
2021/01/09 20:54:21;;;;;;;11.25;3.83;;;18.30;53.50;;;;;;10546300;28;20052;-59
2021/01/09 20:59:23;;;;;;;8.90;4.03;;;18.30;53.50;;;;;;10549138;28;20048;-58
2021/01/09 21:04:28;;;;;;;10.68;4.90;;;18.30;53.40;;;;;;10553484;28;20051;-58
2021/01/09 21:09:30;;;;;;;12.55;4.22;;;18.40;53.40;;;;;;10553417;28;20453;-57
2021/01/09 21:14:31;;;;;;;11.18;4.03;;;18.40;53.30;;;;;;10554292;28;20122;-55
2021/01/09 21:19:34;;;;;;;9.27;4.27;;;18.30;53.30;;;;;;10555762;28;20079;-59
2021/01/09 21:24:35;;;;;;;;;;;18.30;53.20;;;;;;10550917;28;20135;-61
2021/01/09 21:29:36;;;;;;;8.13;4.30;;;18.40;53.30;;;;;;10547166;28;20017;-57
2021/01/09 21:34:40;;;;;;;6.90;3.25;;;18.30;53.20;;;;;;10535868;28;20059;-58
2021/01/09 21:39:43;;;;;;;11.45;4.18;;;18.30;53.20;;;;;;10551108;28;20055;-56
2021/01/09 21:44:44;;;;;;;11.23;4.53;;;18.30;53.10;;;;;;10559139;28;20055;-59
2021/01/09 21:49:47;;;;;;;9.93;4.15;;;18.30;53.10;;;;;;10556040;28;20257;-59
2021/01/09 21:54:48;;;;;;;9.10;4.70;;;18.30;53.00;;;;;;10554451;28;20176;-57
2021/01/09 21:59:50;;;;;;;11.65;3.90;;;18.30;53.00;;;;;;10549940;28;20044;-59
2021/01/09 22:04:53;;;;;;;7.93;3.30;;;18.40;53.00;;;;;;10554871;28;20052;-59
2021/01/09 22:09:54;;;;;;;8.57;3.40;;;18.40;53.00;;;;;;10554134;28;20048;-59
2021/01/09 22:14:56;;;;;;;12.57;4.20;;;18.30;52.90;;;;;;10551504;28;20055;-56
2021/01/09 22:19:58;;;;;;;8.75;3.20;;;18.30;52.90;;;;;;10555533;28;20047;-59
2021/01/09 22:24:59;;;;;;;7.50;3.85;;;18.40;52.90;;;;;;10551891;28;20059;-57
2021/01/09 22:30:01;;;;;;;8.48;3.65;;;18.30;52.90;;;;;;10553333;28;20063;-58
2021/01/09 22:35:05;;;;;;;7.10;3.93;;;18.30;52.80;;;;;;10548903;28;20052;-56
2021/01/09 22:40:07;;;;;;;7.03;3.67;;;18.30;52.80;;;;;;10778303;22;20173;-56
2021/01/09 22:45:10;;;;;;;11.52;3.45;;;18.30;52.80;;;;;;10521075;28;20752;-55
2021/01/09 22:50:13;;;;;;;;;;;18.30;52.70;;;;;;10547622;28;20052;-57
2021/01/09 22:55:14;;;;;;;6.70;3.38;;;18.30;52.80;;;;;;10547439;28;19926;-55
2021/01/09 23:00:23;;;;;;;6.83;3.30;;;18.30;52.70;;;;;;10539881;28;20052;-58
2021/01/09 23:05:26;;;;;;;6.63;3.25;;;18.30;52.70;;;;;;10539332;28;20060;-60
2021/01/09 23:10:28;;;;;;;5.70;3.10;;;18.20;52.60;;;;;;10533189;28;20062;-57
2021/01/09 23:15:30;;;;;;;11.80;3.38;;;18.30;52.60;;;;;;10538402;28;20108;-57
2021/01/09 23:20:32;;;;;;;6.43;3.40;;;18.20;52.50;;;;;;10530926;28;20036;-57
2021/01/09 23:25:38;;;;;;;7.55;4.60;;;18.20;52.50;;;;;;10534164;28;20079;-56
2021/01/09 23:30:40;;;;;;;6.82;3.40;;;18.20;52.40;;;;;;10539517;28;20610;-56
2021/01/09 23:35:44;;;;;;;7.57;3.70;;;18.20;52.40;;;;;;10530495;28;20098;-56
2021/01/09 23:40:46;;;;;;;8.25;3.20;;;18.20;52.40;;;;;;10536368;28;20055;-58
2021/01/09 23:45:51;;;;;;;7.22;3.20;;;18.20;52.40;;;;;;10538196;28;20472;-58
2021/01/09 23:50:53;;;;;;;8.30;3.92;;;18.20;52.40;;;;;;10536293;28;20090;-59
2021/01/09 23:55:56;;;;;;;5.57;3.08;;;18.20;52.30;;;;;;10532350;28;20051;-57
